コート・ダジュール空港(ニース)の過去48時間の天気

コート・ダジュール空港(ニース) (Nice)

現在時刻: 7/2 14:20 CEST (7/2 12:20 UTC) 以下の時間は現地時間です。

過去48時間のMETAR気象情報
時間 風向 風速(m/s) 視程 気温(℃) 湿度(%) 気圧(hPa) 天気現象
2 14:00 南東 3 10km以上 26 74 1012
2 13:30 南東 3 10km以上 26 74 1012
2 13:00 南東 3 10km以上 26 74 1012
2 12:30 南東 4 10km以上 26 74 1012
2 12:00 南東 4 10km以上 26 74 1012
2 11:30 南東 3 10km以上 26 74 1012
2 11:00 南南東 3 10km以上 26 74 1012
2 10:30 4 10km以上 25 78 1012
2 10:00 4 10km以上 25 78 1012
2 09:30 南南西 3 10km以上 25 78 1011
2 09:00 不定 2 10km以上 25 74 1011
2 08:30 北西 3 10km以上 25 69 1011
2 08:00 北西 2 10km以上 24 74 1011
2 07:30 北西 2 10km以上 24 74 1011
2 07:00 北西 3 10km以上 23 83 1011
2 06:30 北西 2 10km以上 23 83 1011
2 06:00 不定 1 10km以上 23 83 1011
2 05:30 西 2 10km以上 23 83 1011
2 05:00 不定 1 10km以上 24 78 1011
2 04:30 不定 1 10km以上 24 83 1011
2 04:00 南南東 2 10km以上 24 83 1011
2 03:30 東南東 3 10km以上 24 83 1011
2 03:00 東南東 3 10km以上 24 78 1011
2 02:30 3 10km以上 24 78 1012
2 02:00 4 10km以上 24 83 1012
2 01:30 5 10km以上 24 83 1012
2 01:00 5 10km以上 24 78 1012
2 00:30 3 10km以上 24 78 1012
2 00:00 東南東 2 10km以上 23 83 1012
1 23:30 1 10km以上 23 83 1012
1 23:00 南南東 2 10km以上 24 78 1012
1 22:30 東南東 2 10km以上 24 78 1012
1 22:00 静穏 0 10km以上 24 78 1011
1 21:30 南南東 2 10km以上 24 78 1011
1 21:00 東南東 1 10km以上 24 78 1011
1 20:30 東南東 2 10km以上 24 78 1011
1 20:00 南東 2 10km以上 24 78 1011
1 19:30 不定 2 10km以上 24 78 1011
1 19:00 不定 2 10km以上 24 78 1011
1 18:30 不定 1 10km以上 25 74 1011
1 18:00 不定 1 10km以上 25 74 1012
1 17:30 東南東 2 10km以上 25 74 1012
1 17:00 東南東 2 10km以上 25 74 1012
1 16:30 2 10km以上 25 74 1013
1 16:00 東南東 3 10km以上 25 74 1013
1 15:30 東南東 3 10km以上 25 74 1013
1 15:00 南東 3 10km以上 25 74 1013
1 14:30 南東 3 10km以上 25 74 1013
1 14:00 南東 3 10km以上 25 74 1013
1 13:30 南東 3 10km以上 25 74 1013
1 13:00 東南東 3 10km以上 26 70 1013
1 12:30 東南東 3 10km以上 25 78 1013
1 12:00 東南東 4 10km以上 26 74 1013
1 11:30 東南東 4 10km以上 25 78 1013
1 11:00 東南東 4 10km以上 26 74 1013
1 10:30 東南東 5 10km以上 25 74 1013
1 10:00 東南東 4 10km以上 25 78 1013
1 09:30 東南東 2 10km以上 25 78 1013
1 09:00 不定 2 10km以上 24 78 1013
1 08:30 不定 1 10km以上 24 78 1013
1 08:00 不定 2 10km以上 24 78 1012
1 07:30 静穏 0 10km以上 24 83 1013
1 07:00 西 1 10km以上 23 83 1013
1 06:30 西 1 10km以上 23 83 1013
1 06:00 南西 2 10km以上 23 83 1013
1 05:30 2 10km以上 23 89 1012
1 05:00 南南東 2 10km以上 23 89 1012
1 04:30 南南東 2 10km以上 23 89 1012
1 04:00 南東 3 10km以上 23 89 1012
1 03:30 東南東 4 10km以上 24 83 1012
1 03:00 東南東 4 10km以上 24 83 1012
1 02:30 4 10km以上 24 83 1012
1 02:00 東南東 3 10km以上 24 89 1013
1 01:30 4 10km以上 24 89 1013
1 01:00 4 10km以上 24 83 1013
1 00:30 4 10km以上 24 89 1013
1 00:00 3 10km以上 24 83 1013
30 23:30 2 10km以上 24 89 1013
30 23:00 2 10km以上 24 83 1013
30 22:30 東北東 2 10km以上 25 78 1013
30 22:00 東北東 2 10km以上 25 78 1013
LFMN 021200Z AUTO 14005KT CAVOK 26/21 Q1012 TEMPO SCT014 FEW060TCU
LFMN 021130Z AUTO 13006KT CAVOK 26/21 Q1012 TEMPO SCT014 FEW060TCU
LFMN 021100Z AUTO 14006KT CAVOK 26/21 Q1012 TEMPO SCT014 FEW060TCU
LFMN 021030Z AUTO 14007KT CAVOK 26/21 Q1012 TEMPO SCT014 FEW060TCU
LFMN 021000Z AUTO 13007KT CAVOK 26/21 Q1012 NOSIG
LFMN 020930Z AUTO 13005KT CAVOK 26/21 Q1012 NOSIG
LFMN 020900Z AUTO 16005KT CAVOK 26/21 Q1012 NOSIG
LFMN 020830Z AUTO 19007KT CAVOK 25/21 Q1012 NOSIG
LFMN 020800Z AUTO 19007KT CAVOK 25/21 Q1012 NOSIG
LFMN 020730Z AUTO 20005KT 180V240 CAVOK 25/21 Q1011 NOSIG
LFMN 020700Z AUTO VRB03KT CAVOK 25/20 Q1011 NOSIG
LFMN 020630Z AUTO 31006KT 270V350 CAVOK 25/19 Q1011 NOSIG
LFMN 020600Z AUTO 31004KT 250V010 CAVOK 24/19 Q1011 NOSIG
LFMN 020530Z AUTO 32004KT 300V360 CAVOK 24/19 Q1011 NOSIG
LFMN 020500Z AUTO 32005KT CAVOK 23/20 Q1011 TEMPO OVC012
LFMN 020430Z AUTO 32004KT 9999 FEW015 23/20 Q1011 TEMPO OVC012
LFMN 020400Z AUTO VRB02KT 9999 SCT020 BKN031 23/20 Q1011 TEMPO OVC012
LFMN 020330Z AUTO 27003KT 9999 FEW014 OVC029 23/20 Q1011 TEMPO 33010KT OVC012
LFMN 020300Z AUTO VRB02KT 9999 BKN019 OVC027 24/20 Q1011 TEMPO OVC012
LFMN 020230Z AUTO VRB02KT 9999 OVC022 24/21 Q1011 TEMPO OVC012
LFMN 020200Z AUTO 15004KT 9999 OVC019 24/21 Q1011 TEMPO 33010KT OVC012
LFMN 020130Z AUTO 12005KT 9999 OVC014 24/21 Q1011 TEMPO 33010KT
LFMN 020100Z AUTO 11005KT 9999 BKN016 OVC022 24/20 Q1011 TEMPO 33010KT OVC012
LFMN 020030Z AUTO 10006KT 9999 BKN020 OVC026 24/20 Q1012 TEMPO 33010KT OVC012
LFMN 020000Z AUTO 09007KT 9999 SCT015 OVC021 24/21 Q1012 TEMPO 33010KT OVC012
LFMN 012330Z AUTO 10009KT 9999 BKN016 OVC025 24/21 Q1012 TEMPO 33010KT OVC012
LFMN 012300Z AUTO 09009KT 9999 FEW015 OVC024 24/20 Q1012 TEMPO 33010KT OVC012
LFMN 012230Z AUTO 10006KT 9999 FEW018 OVC024 24/20 Q1012 TEMPO 33010KT OVC012
LFMN 012200Z AUTO 11003KT 9999 OVC024 23/20 Q1012 NOSIG
LFMN 012130Z AUTO 17001KT 9999 OVC023 23/20 Q1012 NOSIG
LFMN 012100Z AUTO 16003KT 9999 OVC023 24/20 Q1012 NOSIG
LFMN 012030Z AUTO 12003KT 9999 OVC023 24/20 Q1012 NOSIG
LFMN 012000Z AUTO 00000KT 9999 OVC024 24/20 Q1011 NOSIG
LFMN 011930Z AUTO 16003KT 9999 OVC026 24/20 Q1011 NOSIG
LFMN 011900Z AUTO 12001KT 9999 OVC026 24/20 Q1011 NOSIG
LFMN 011830Z AUTO 12003KT 090V150 9999 OVC027 24/20 Q1011 NOSIG
LFMN 011800Z AUTO 14003KT 9999 OVC028 24/20 Q1011 NOSIG
LFMN 011730Z AUTO VRB03KT 9999 OVC029 24/20 Q1011 NOSIG
LFMN 011700Z AUTO VRB03KT 9999 OVC029 24/20 Q1011 TEMPO FEW080TCU
LFMN 011630Z AUTO VRB02KT 9999 BKN030 OVC035 25/20 Q1011 TEMPO FEW080TCU
LFMN 011600Z AUTO VRB02KT 9999 OVC031 25/20 Q1012 TEMPO FEW080TCU
LFMN 011530Z AUTO 12003KT 080V140 9999 OVC033 25/20 Q1012 TEMPO FEW080TCU
LFMN 011500Z AUTO 11004KT 9999 OVC033 25/20 Q1012 TEMPO FEW080TCU
LFMN 011430Z AUTO 10004KT 9999 OVC034 25/20 Q1013 TEMPO FEW080TCU
LFMN 011400Z AUTO 11005KT 9999 OVC033 25/20 Q1013 TEMPO FEW080TCU
LFMN 011330Z AUTO 11005KT 9999 OVC033 25/20 Q1013 TEMPO FEW080TCU
LFMN 011300Z AUTO 13005KT 9999 OVC034 25/20 Q1013 TEMPO FEW080TCU
LFMN 011230Z AUTO 13005KT 9999 OVC033 25/20 Q1013 TEMPO FEW080TCU
LFMN 011200Z AUTO 13006KT 090V150 9999 OVC034 25/20 Q1013 TEMPO FEW080TCU
LFMN 011130Z AUTO 13005KT 9999 OVC031 25/20 Q1013 TEMPO FEW080TCU
LFMN 011100Z AUTO 12006KT 9999 FEW013 OVC032 26/20 Q1013 TEMPO FEW080TCU
LFMN 011030Z AUTO 12006KT 9999 SCT013 OVC035 25/21 Q1013 TEMPO FEW080TCU
LFMN 011000Z AUTO 11007KT 9999 SCT012 OVC038 26/21 Q1013 TEMPO FEW080TCU
LFMN 010930Z AUTO 12007KT 9999 FEW012 SCT240 25/21 Q1013 TEMPO FEW080TCU
LFMN 010900Z AUTO 11008KT 9999 BKN014 BKN019 BKN024 26/21 Q1013 TEMPO FEW080TCU
LFMN 010830Z AUTO 11009KT 9999 BKN013 25/20 Q1013 TEMPO FEW080TCU
LFMN 010800Z AUTO 11007KT 9999 BKN013 BKN034 BKN140 25/21 Q1013 BECMG FEW020
LFMN 010730Z AUTO 11003KT 080V140 9999 FEW014 SCT019 OVC024 25/21 Q1013 NOSIG
LFMN 010700Z AUTO VRB03KT 9999 BKN015 BKN036 24/20 Q1013 TEMPO BKN010
LFMN 010630Z AUTO VRB02KT 9999 BKN015 OVC036 24/20 Q1013 TEMPO BKN010
LFMN 010600Z AUTO VRB03KT 9999 BKN016 OVC035 24/20 Q1012 TEMPO BKN010
LFMN 010530Z AUTO 00000KT 9999 OVC034 24/21 Q1013 TEMPO BKN010 BECMG 16010KT
LFMN 010500Z AUTO 27002KT 9999 OVC031 23/20 Q1013 TEMPO BKN010 BECMG 34010KT
LFMN 010430Z AUTO 27002KT 9999 BKN024 OVC030 23/20 Q1013 TEMPO BKN010 BECMG 34010KT
LFMN 010400Z AUTO 23003KT 190V270 9999 BKN015 BKN020 OVC025 23/20 Q1013 TEMPO BKN010 BECMG 34010KT
LFMN 010330Z AUTO 18003KT 9999 OVC022 23/21 Q1012 TEMPO BKN010 BECMG 34010KT
LFMN 010300Z AUTO 16003KT 9999 OVC020 23/21 Q1012 TEMPO BKN010 BECMG 34010KT
LFMN 010230Z AUTO 15003KT 9999 OVC022 23/21 Q1012 TEMPO BKN010 BECMG 34010KT
LFMN 010200Z AUTO 13005KT 9999 FEW009 OVC023 23/21 Q1012 TEMPO BKN010 BECMG 34010KT
LFMN 010130Z AUTO 11008KT 9999 FEW011 OVC020 24/21 Q1012 TEMPO BKN010 BECMG 34010KT
LFMN 010100Z AUTO 11007KT 9999 FEW010 OVC017 24/21 Q1012 TEMPO BKN010 BECMG 34010KT
LFMN 010030Z AUTO 10007KT 9999 SCT015 BKN020 24/21 Q1012 TEMPO BKN010 BECMG 34010KT
LFMN 010000Z AUTO 11006KT 9999 FEW010 BKN015 24/22 Q1013 TEMPO BKN010 BECMG 34010KT
LFMN 302330Z AUTO 10007KT CAVOK 24/22 Q1013 TEMPO BKN010 BECMG 34010KT
LFMN 302300Z AUTO 10007KT CAVOK 24/21 Q1013 TEMPO BKN010 BECMG 34010KT
LFMN 302230Z AUTO 09007KT CAVOK 24/22 Q1013 TEMPO BKN010 BECMG 34010KT
LFMN 302200Z AUTO 10005KT CAVOK 24/21 Q1013 NOSIG
LFMN 302130Z AUTO 09004KT CAVOK 24/22 Q1013 NOSIG
LFMN 302100Z AUTO 09004KT CAVOK 24/21 Q1013 NOSIG
LFMN 302030Z AUTO 07004KT CAVOK 25/21 Q1013 NOSIG
LFMN 302000Z AUTO 07004KT CAVOK 25/21 Q1013 NOSIG